sensor_id;sensor_type;location;lat;lon;timestamp;pressure;altitude;pressure_sealevel;temperature;humidity
67517;BME280;54359;59.124;37.910;2022-12-18T00:02:06;100526.72;;;-7.31;85.63
67517;BME280;54359;59.124;37.910;2022-12-18T00:04:32;100522.81;;;-7.37;85.67
67517;BME280;54359;59.124;37.910;2022-12-18T00:06:58;100525.44;;;-7.36;86.05
67517;BME280;54359;59.124;37.910;2022-12-18T00:09:24;100519.75;;;-7.43;85.70
67517;BME280;54359;59.124;37.910;2022-12-18T00:11:50;100522.94;;;-7.36;86.38
67517;BME280;54359;59.124;37.910;2022-12-18T00:14:16;100523.41;;;-7.40;86.54
67517;BME280;54359;59.124;37.910;2022-12-18T00:16:45;100516.66;;;-7.41;85.85
67517;BME280;54359;59.124;37.910;2022-12-18T00:19:12;100518.22;;;-7.33;86.03
67517;BME280;54359;59.124;37.910;2022-12-18T00:21:38;100505.94;;;-7.40;86.15
67517;BME280;54359;59.124;37.910;2022-12-18T00:24:05;100497.84;;;-7.37;85.97
67517;BME280;54359;59.124;37.910;2022-12-18T00:26:33;100487.59;;;-7.40;85.61
67517;BME280;54359;59.124;37.910;2022-12-18T00:29:03;100485.25;;;-7.47;85.94
67517;BME280;54359;59.124;37.910;2022-12-18T00:31:30;100495.53;;;-7.44;85.56
67517;BME280;54359;59.124;37.910;2022-12-18T00:33:56;100509.03;;;-7.42;85.10
67517;BME280;54359;59.124;37.910;2022-12-18T00:36:31;100497.19;;;-7.54;86.49
67517;BME280;54359;59.124;37.910;2022-12-18T00:38:58;100513.34;;;-7.50;86.11
67517;BME280;54359;59.124;37.910;2022-12-18T00:41:25;100498.81;;;-7.54;85.84
67517;BME280;54359;59.124;37.910;2022-12-18T00:44:11;100498.69;;;-7.56;85.38
67517;BME280;54359;59.124;37.910;2022-12-18T00:46:37;100493.53;;;-7.57;86.32
67517;BME280;54359;59.124;37.910;2022-12-18T00:49:04;100475.50;;;-7.63;85.84
67517;BME280;54359;59.124;37.910;2022-12-18T00:51:29;100494.56;;;-7.55;85.98
67517;BME280;54359;59.124;37.910;2022-12-18T00:53:56;100489.31;;;-7.58;85.58
67517;BME280;54359;59.124;37.910;2022-12-18T00:56:22;100483.28;;;-7.60;85.55
67517;BME280;54359;59.124;37.910;2022-12-18T00:58:48;100494.16;;;-7.60;85.67
67517;BME280;54359;59.124;37.910;2022-12-18T01:01:15;100484.38;;;-7.67;86.07
67517;BME280;54359;59.124;37.910;2022-12-18T01:03:41;100493.88;;;-7.63;86.37
67517;BME280;54359;59.124;37.910;2022-12-18T01:06:09;100494.34;;;-7.67;86.17
67517;BME280;54359;59.124;37.910;2022-12-18T01:08:35;100486.84;;;-7.67;85.58
67517;BME280;54359;59.124;37.910;2022-12-18T01:11:10;100489.22;;;-7.69;86.65
67517;BME280;54359;59.124;37.910;2022-12-18T01:13:38;100488.00;;;-7.63;86.94
67517;BME280;54359;59.124;37.910;2022-12-18T01:16:04;100499.53;;;-7.55;85.83
67517;BME280;54359;59.124;37.910;2022-12-18T01:18:30;100499.09;;;-7.51;85.64
67517;BME280;54359;59.124;37.910;2022-12-18T01:20:58;100494.56;;;-7.55;86.18
67517;BME280;54359;59.124;37.910;2022-12-18T01:23:24;100489.44;;;-7.57;86.42
67517;BME280;54359;59.124;37.910;2022-12-18T01:25:52;100492.53;;;-7.59;85.89
67517;BME280;54359;59.124;37.910;2022-12-18T01:28:18;100485.19;;;-7.58;86.75
67517;BME280;54359;59.124;37.910;2022-12-18T01:30:44;100484.44;;;-7.57;86.98
67517;BME280;54359;59.124;37.910;2022-12-18T01:33:10;100490.09;;;-7.49;86.48
67517;BME280;54359;59.124;37.910;2022-12-18T01:35:41;100488.78;;;-7.45;86.25
67517;BME280;54359;59.124;37.910;2022-12-18T01:38:07;100466.22;;;-7.56;85.35
67517;BME280;54359;59.124;37.910;2022-12-18T01:40:33;100470.97;;;-7.59;84.94
67517;BME280;54359;59.124;37.910;2022-12-18T01:42:59;100465.88;;;-7.69;86.17
67517;BME280;54359;59.124;37.910;2022-12-18T01:45:27;100465.88;;;-7.69;85.41
67517;BME280;54359;59.124;37.910;2022-12-18T01:48:05;100465.72;;;-7.71;86.11
67517;BME280;54359;59.124;37.910;2022-12-18T01:50:36;100457.09;;;-7.74;86.35
67517;BME280;54359;59.124;37.910;2022-12-18T01:53:16;100458.50;;;-7.68;85.93
67517;BME280;54359;59.124;37.910;2022-12-18T01:55:46;100434.47;;;-7.76;86.22
67517;BME280;54359;59.124;37.910;2022-12-18T01:58:14;100440.91;;;-7.69;85.78
67517;BME280;54359;59.124;37.910;2022-12-18T02:00:40;100440.06;;;-7.78;86.34
67517;BME280;54359;59.124;37.910;2022-12-18T02:03:06;100449.19;;;-7.79;85.77
67517;BME280;54359;59.124;37.910;2022-12-18T02:13:53;100439.81;;;-7.81;85.78
67517;BME280;54359;59.124;37.910;2022-12-18T02:16:29;100427.19;;;-7.83;85.65
67517;BME280;54359;59.124;37.910;2022-12-18T02:19:04;100413.84;;;-7.83;85.34
67517;BME280;54359;59.124;37.910;2022-12-18T02:21:40;100411.53;;;-7.91;86.16
67517;BME280;54359;59.124;37.910;2022-12-18T02:24:51;100424.09;;;-7.80;85.79
67517;BME280;54359;59.124;37.910;2022-12-18T02:27:16;100419.25;;;-7.79;86.11
67517;BME280;54359;59.124;37.910;2022-12-18T02:29:49;100430.84;;;-7.79;85.78
67517;BME280;54359;59.124;37.910;2022-12-18T02:32:20;100436.09;;;-7.76;85.74
67517;BME280;54359;59.124;37.910;2022-12-18T02:34:48;100433.94;;;-7.82;85.86
67517;BME280;54359;59.124;37.910;2022-12-18T02:37:18;100436.72;;;-7.79;86.15
67517;BME280;54359;59.124;37.910;2022-12-18T02:39:49;100421.34;;;-7.83;85.55
67517;BME280;54359;59.124;37.910;2022-12-18T02:42:16;100438.66;;;-7.85;85.85
67517;BME280;54359;59.124;37.910;2022-12-18T02:44:49;100434.28;;;-7.87;86.13
67517;BME280;54359;59.124;37.910;2022-12-18T02:47:21;100442.03;;;-7.84;86.94
67517;BME280;54359;59.124;37.910;2022-12-18T02:52:39;100439.66;;;-7.83;86.02
67517;BME280;54359;59.124;37.910;2022-12-18T02:58:06;100435.28;;;-7.85;86.26
67517;BME280;54359;59.124;37.910;2022-12-18T03:00:44;100430.75;;;-7.90;86.18
67517;BME280;54359;59.124;37.910;2022-12-18T03:03:24;100424.31;;;-7.96;85.96
67517;BME280;54359;59.124;37.910;2022-12-18T03:05:55;100429.19;;;-7.98;86.26
67517;BME280;54359;59.124;37.910;2022-12-18T03:08:34;100415.16;;;-8.06;86.20
67517;BME280;54359;59.124;37.910;2022-12-18T03:11:05;100427.41;;;-7.99;86.20
67517;BME280;54359;59.124;37.910;2022-12-18T03:13:43;100428.19;;;-8.00;85.84
67517;BME280;54359;59.124;37.910;2022-12-18T03:16:16;100422.28;;;-8.00;85.75
67517;BME280;54359;59.124;37.910;2022-12-18T03:18:52;100428.19;;;-8.00;86.46
67517;BME280;54359;59.124;37.910;2022-12-18T03:21:25;100427.41;;;-7.99;85.85
67517;BME280;54359;59.124;37.910;2022-12-18T03:23:54;100417.72;;;-7.96;86.20
67517;BME280;54359;59.124;37.910;2022-12-18T03:26:26;100416.72;;;-7.98;86.24
67517;BME280;54359;59.124;37.910;2022-12-18T03:29:04;100404.09;;;-7.99;86.41
67517;BME280;54359;59.124;37.910;2022-12-18T03:31:37;100407.31;;;-8.00;85.67
67517;BME280;54359;59.124;37.910;2022-12-18T03:34:06;100415.34;;;-7.94;85.81
67517;BME280;54359;59.124;37.910;2022-12-18T03:36:40;100409.97;;;-7.99;86.43
67517;BME280;54359;59.124;37.910;2022-12-18T03:39:06;100423.84;;;-7.92;86.23
67517;BME280;54359;59.124;37.910;2022-12-18T03:41:43;100422.13;;;-7.93;86.16
67517;BME280;54359;59.124;37.910;2022-12-18T03:44:33;100420.34;;;-7.94;85.63
67517;BME280;54359;59.124;37.910;2022-12-18T03:47:12;100409.09;;;-7.99;86.49
67517;BME280;54359;59.124;37.910;2022-12-18T03:49:57;100415.03;;;-7.89;86.15
67517;BME280;54359;59.124;37.910;2022-12-18T03:52:33;100409.91;;;-7.90;85.80
67517;BME280;54359;59.124;37.910;2022-12-18T03:55:03;100397.16;;;-7.93;85.79
67517;BME280;54359;59.124;37.910;2022-12-18T03:57:32;100410.91;;;-7.88;86.63
67517;BME280;54359;59.124;37.910;2022-12-18T04:00:06;100378.56;;;-7.97;86.56
67517;BME280;54359;59.124;37.910;2022-12-18T04:02:44;100385.09;;;-7.89;85.75
67517;BME280;54359;59.124;37.910;2022-12-18T04:05:15;100381.59;;;-7.91;85.49
67517;BME280;54359;59.124;37.910;2022-12-18T04:07:43;100379.41;;;-7.96;86.52
67517;BME280;54359;59.124;37.910;2022-12-18T04:10:11;100366.13;;;-8.05;86.28
67517;BME280;54359;59.124;37.910;2022-12-18T04:12:38;100375.25;;;-8.06;85.47
67517;BME280;54359;59.124;37.910;2022-12-18T04:15:05;100374.94;;;-8.09;86.34
67517;BME280;54359;59.124;37.910;2022-12-18T04:17:33;100382.59;;;-8.07;86.43
67517;BME280;54359;59.124;37.910;2022-12-18T04:20:00;100387.97;;;-8.03;85.81
67517;BME280;54359;59.124;37.910;2022-12-18T04:22:26;100392.34;;;-8.00;86.56
67517;BME280;54359;59.124;37.910;2022-12-18T04:24:57;100393.66;;;-7.95;86.65
67517;BME280;54359;59.124;37.910;2022-12-18T04:27:30;100369.78;;;-8.02;86.06
67517;BME280;54359;59.124;37.910;2022-12-18T04:29:58;100369.59;;;-7.95;85.68
67517;BME280;54359;59.124;37.910;2022-12-18T04:32:24;100365.38;;;-8.04;86.26
67517;BME280;54359;59.124;37.910;2022-12-18T04:34:53;100375.34;;;-7.96;86.08
67517;BME280;54359;59.124;37.910;2022-12-18T04:37:20;100375.19;;;-7.97;86.18
67517;BME280;54359;59.124;37.910;2022-12-18T04:39:48;100377.22;;;-7.93;86.63
67517;BME280;54359;59.124;37.910;2022-12-18T04:42:22;100373.69;;;-7.95;86.25
67517;BME280;54359;59.124;37.910;2022-12-18T04:44:48;100377.69;;;-7.97;86.37
67517;BME280;54359;59.124;37.910;2022-12-18T04:47:13;100378.56;;;-7.97;85.75
67517;BME280;54359;59.124;37.910;2022-12-18T04:49:39;100370.34;;;-7.96;86.50
67517;BME280;54359;59.124;37.910;2022-12-18T04:52:05;100376.94;;;-7.96;86.58
67517;BME280;54359;59.124;37.910;2022-12-18T04:54:31;100384.56;;;-7.95;86.46
67517;BME280;54359;59.124;37.910;2022-12-18T04:56:57;100398.09;;;-8.01;86.09
67517;BME280;54359;59.124;37.910;2022-12-18T04:59:22;100379.53;;;-8.14;86.22
67517;BME280;54359;59.124;37.910;2022-12-18T05:01:48;100382.03;;;-8.14;85.89
67517;BME280;54359;59.124;37.910;2022-12-18T05:04:14;100386.59;;;-8.18;86.07
67517;BME280;54359;59.124;37.910;2022-12-18T05:06:40;100377.09;;;-8.22;85.90
67517;BME280;54359;59.124;37.910;2022-12-18T05:09:06;100372.38;;;-8.19;86.57
67517;BME280;54359;59.124;37.910;2022-12-18T05:11:32;100375.47;;;-8.22;86.08
67517;BME280;54359;59.124;37.910;2022-12-18T05:13:57;100377.56;;;-8.26;86.02
67517;BME280;54359;59.124;37.910;2022-12-18T05:16:25;100371.25;;;-8.32;86.12
67517;BME280;54359;59.124;37.910;2022-12-18T05:18:51;100370.84;;;-8.36;86.39
67517;BME280;54359;59.124;37.910;2022-12-18T05:21:17;100381.53;;;-8.28;86.37
67517;BME280;54359;59.124;37.910;2022-12-18T05:23:42;100372.28;;;-8.30;86.14
67517;BME280;54359;59.124;37.910;2022-12-18T05:26:09;100376.25;;;-8.32;85.42
67517;BME280;54359;59.124;37.910;2022-12-18T05:28:39;100376.25;;;-8.32;86.11
67517;BME280;54359;59.124;37.910;2022-12-18T05:31:05;100373.69;;;-8.42;85.97
67517;BME280;54359;59.124;37.910;2022-12-18T05:33:33;100371.31;;;-8.40;86.17
67517;BME280;54359;59.124;37.910;2022-12-18T05:36:01;100384.63;;;-8.40;86.66
67517;BME280;54359;59.124;37.910;2022-12-18T05:38:29;100390.97;;;-8.43;86.17
67517;BME280;54359;59.124;37.910;2022-12-18T05:40:55;100378.50;;;-8.43;85.95
67517;BME280;54359;59.124;37.910;2022-12-18T05:43:23;100389.97;;;-8.45;86.13
67517;BME280;54359;59.124;37.910;2022-12-18T05:45:50;100374.31;;;-8.53;86.21
67517;BME280;54359;59.124;37.910;2022-12-18T05:48:16;100383.69;;;-8.51;85.70
67517;BME280;54359;59.124;37.910;2022-12-18T05:50:43;100381.66;;;-8.55;86.08
67517;BME280;54359;59.124;37.910;2022-12-18T05:53:11;100382.81;;;-8.60;86.25
67517;BME280;54359;59.124;37.910;2022-12-18T05:55:39;100377.56;;;-8.63;86.36
67517;BME280;54359;59.124;37.910;2022-12-18T05:58:07;100378.75;;;-8.59;86.29
67517;BME280;54359;59.124;37.910;2022-12-18T06:00:37;100380.03;;;-8.54;86.30
67517;BME280;54359;59.124;37.910;2022-12-18T06:03:08;100395.41;;;-8.50;86.21
67517;BME280;54359;59.124;37.910;2022-12-18T06:05:39;100396.97;;;-8.41;86.18
67517;BME280;54359;59.124;37.910;2022-12-18T06:08:05;100381.75;;;-8.44;86.38
67517;BME280;54359;59.124;37.910;2022-12-18T06:10:31;100371.94;;;-8.52;86.29
67517;BME280;54359;59.124;37.910;2022-12-18T06:12:59;100393.63;;;-8.42;86.34
67517;BME280;54359;59.124;37.910;2022-12-18T06:15:25;100383.53;;;-8.52;86.54
67517;BME280;54359;59.124;37.910;2022-12-18T06:17:51;100383.38;;;-8.54;85.83
67517;BME280;54359;59.124;37.910;2022-12-18T06:20:17;100380.03;;;-8.54;86.04
67517;BME280;54359;59.124;37.910;2022-12-18T06:22:43;100389.53;;;-8.50;86.31
67517;BME280;54359;59.124;37.910;2022-12-18T06:25:09;100380.19;;;-8.53;86.30
67517;BME280;54359;59.124;37.910;2022-12-18T06:27:36;100402.94;;;-8.39;86.32
67517;BME280;54359;59.124;37.910;2022-12-18T06:30:04;100402.94;;;-8.39;86.11
67517;BME280;54359;59.124;37.910;2022-12-18T06:32:31;100408.69;;;-8.40;86.14
67517;BME280;54359;59.124;37.910;2022-12-18T06:34:57;100410.91;;;-8.43;86.48
67517;BME280;54359;59.124;37.910;2022-12-18T06:37:23;100399.81;;;-8.56;86.22
67517;BME280;54359;59.124;37.910;2022-12-18T06:39:53;100408.47;;;-8.52;85.53
67517;BME280;54359;59.124;37.910;2022-12-18T06:42:19;100399.13;;;-8.63;86.29
67517;BME280;54359;59.124;37.910;2022-12-18T06:44:45;100374.97;;;-8.73;86.06
67517;BME280;54359;59.124;37.910;2022-12-18T06:47:12;100395.47;;;-8.67;85.94
67517;BME280;54359;59.124;37.910;2022-12-18T06:49:38;100403.66;;;-8.59;86.55
67517;BME280;54359;59.124;37.910;2022-12-18T06:52:03;100408.66;;;-8.59;86.19
67517;BME280;54359;59.124;37.910;2022-12-18T06:54:29;100407.91;;;-8.58;86.07
67517;BME280;54359;59.124;37.910;2022-12-18T06:56:55;100411.13;;;-8.59;85.89
67517;BME280;54359;59.124;37.910;2022-12-18T06:59:21;100398.69;;;-8.59;86.06
67517;BME280;54359;59.124;37.910;2022-12-18T07:01:47;100418.00;;;-8.57;86.66
67517;BME280;54359;59.124;37.910;2022-12-18T07:04:13;100418.00;;;-8.57;86.04
67517;BME280;54359;59.124;37.910;2022-12-18T07:06:39;100394.41;;;-8.60;86.04
67517;BME280;54359;59.124;37.910;2022-12-18T07:09:05;100401.28;;;-8.49;86.52
67517;BME280;54359;59.124;37.910;2022-12-18T07:11:32;100400.38;;;-8.41;86.39
67517;BME280;54359;59.124;37.910;2022-12-18T07:13:59;100410.72;;;-8.36;86.69
67517;BME280;54359;59.124;37.910;2022-12-18T07:16:25;100386.34;;;-8.49;86.66
67517;BME280;54359;59.124;37.910;2022-12-18T07:18:52;100403.84;;;-8.39;86.31
67517;BME280;54359;59.124;37.910;2022-12-18T07:21:19;100398.97;;;-8.37;86.32
67517;BME280;54359;59.124;37.910;2022-12-18T07:23:45;100411.44;;;-8.37;85.81
67517;BME280;54359;59.124;37.910;2022-12-18T07:26:15;100378.84;;;-8.49;86.49
67517;BME280;54359;59.124;37.910;2022-12-18T07:28:42;100378.25;;;-8.46;85.94
67517;BME280;54359;59.124;37.910;2022-12-18T07:31:17;100406.34;;;-8.39;86.94
67517;BME280;54359;59.124;37.910;2022-12-18T07:33:46;100386.59;;;-8.46;86.38
67517;BME280;54359;59.124;37.910;2022-12-18T07:36:16;100388.47;;;-8.43;86.56
67517;BME280;54359;59.124;37.910;2022-12-18T07:38:47;100388.22;;;-8.46;86.80
67517;BME280;54359;59.124;37.910;2022-12-18T07:41:13;100404.34;;;-8.43;86.09
67517;BME280;54359;59.124;37.910;2022-12-18T07:43:40;100390.56;;;-8.48;86.33
67517;BME280;54359;59.124;37.910;2022-12-18T07:46:08;100367.03;;;-8.69;86.59
67517;BME280;54359;59.124;37.910;2022-12-18T07:48:34;100365.16;;;-8.72;85.78
67517;BME280;54359;59.124;37.910;2022-12-18T07:51:02;100371.31;;;-8.77;86.16
67517;BME280;54359;59.124;37.910;2022-12-18T07:53:28;100388.44;;;-8.71;85.65
67517;BME280;54359;59.124;37.910;2022-12-18T07:55:59;100372.31;;;-8.75;86.52
67517;BME280;54359;59.124;37.910;2022-12-18T07:58:28;100391.34;;;-8.66;86.75
67517;BME280;54359;59.124;37.910;2022-12-18T08:00:54;100371.47;;;-8.75;86.58
67517;BME280;54359;59.124;37.910;2022-12-18T08:03:27;100393.69;;;-8.59;86.13
67517;BME280;54359;59.124;37.910;2022-12-18T08:06:03;100397.78;;;-8.60;86.37
67517;BME280;54359;59.124;37.910;2022-12-18T08:08:31;100386.34;;;-8.58;86.34
67517;BME280;54359;59.124;37.910;2022-12-18T08:10:59;100389.84;;;-8.56;85.72
67517;BME280;54359;59.124;37.910;2022-12-18T08:13:25;100383.13;;;-8.57;86.07
67517;BME280;54359;59.124;37.910;2022-12-18T08:16:06;100374.66;;;-8.67;86.68
67517;BME280;54359;59.124;37.910;2022-12-18T08:18:33;100390.19;;;-8.61;86.24
67517;BME280;54359;59.124;37.910;2022-12-18T08:21:11;100386.66;;;-8.63;86.14
67517;BME280;54359;59.124;37.910;2022-12-18T08:23:38;100370.59;;;-8.76;86.08
67517;BME280;54359;59.124;37.910;2022-12-18T08:26:04;100386.53;;;-8.65;85.80
67517;BME280;54359;59.124;37.910;2022-12-18T08:28:30;100391.78;;;-8.62;86.16
67517;BME280;54359;59.124;37.910;2022-12-18T08:30:56;100395.44;;;-8.58;86.39
67517;BME280;54359;59.124;37.910;2022-12-18T08:33:23;100384.88;;;-8.56;86.43
67517;BME280;54359;59.124;37.910;2022-12-18T08:35:49;100373.56;;;-8.52;86.27
67517;BME280;54359;59.124;37.910;2022-12-18T08:38:15;100386.59;;;-8.46;85.84
67517;BME280;54359;59.124;37.910;2022-12-18T08:40:41;100384.56;;;-8.50;85.97
67517;BME280;54359;59.124;37.910;2022-12-18T08:43:09;100388.94;;;-8.47;86.34
67517;BME280;54359;59.124;37.910;2022-12-18T08:45:54;100374.63;;;-8.59;86.14
67517;BME280;54359;59.124;37.910;2022-12-18T08:48:20;100367.91;;;-8.68;86.04
67517;BME280;54359;59.124;37.910;2022-12-18T08:51:04;100384.75;;;-8.66;86.40
67517;BME280;54359;59.124;37.910;2022-12-18T08:53:30;100394.00;;;-8.65;85.80
67517;BME280;54359;59.124;37.910;2022-12-18T08:55:56;100381.44;;;-8.75;86.19
67517;BME280;54359;59.124;37.910;2022-12-18T08:58:22;100396.50;;;-8.65;86.23
67517;BME280;54359;59.124;37.910;2022-12-18T09:00:50;100398.84;;;-8.66;85.88
67517;BME280;54359;59.124;37.910;2022-12-18T09:03:18;100400.88;;;-8.62;86.04
67517;BME280;54359;59.124;37.910;2022-12-18T09:05:46;100392.56;;;-8.72;85.67
67517;BME280;54359;59.124;37.910;2022-12-18T09:08:13;100385.78;;;-8.64;85.73
67517;BME280;54359;59.124;37.910;2022-12-18T09:10:46;100406.28;;;-8.58;86.00
67517;BME280;54359;59.124;37.910;2022-12-18T09:13:15;100382.72;;;-8.70;85.59
67517;BME280;54359;59.124;37.910;2022-12-18T09:15:52;100413.03;;;-8.57;85.48
67517;BME280;54359;59.124;37.910;2022-12-18T09:18:20;100408.66;;;-8.59;86.08
67517;BME280;54359;59.124;37.910;2022-12-18T09:20:47;100388.16;;;-8.65;86.67
67517;BME280;54359;59.124;37.910;2022-12-18T09:23:14;100401.03;;;-8.61;85.94
67517;BME280;54359;59.124;37.910;2022-12-18T09:25:40;100397.78;;;-8.60;86.17
67517;BME280;54359;59.124;37.910;2022-12-18T09:28:11;100372.06;;;-8.78;86.39
67517;BME280;54359;59.124;37.910;2022-12-18T09:30:43;100410.22;;;-8.51;86.12
67517;BME280;54359;59.124;37.910;2022-12-18T09:33:09;100411.41;;;-8.56;85.84
67517;BME280;54359;59.124;37.910;2022-12-18T09:35:41;100404.53;;;-8.59;86.05
67517;BME280;54359;59.124;37.910;2022-12-18T09:38:14;100411.59;;;-8.63;86.35
67517;BME280;54359;59.124;37.910;2022-12-18T09:40:43;100420.66;;;-8.64;85.80
67517;BME280;54359;59.124;37.910;2022-12-18T09:43:22;100408.81;;;-8.75;85.83
67517;BME280;54359;59.124;37.910;2022-12-18T09:45:55;100413.06;;;-8.74;85.85
67517;BME280;54359;59.124;37.910;2022-12-18T09:48:29;100413.63;;;-8.68;86.16
67517;BME280;54359;59.124;37.910;2022-12-18T09:51:03;100427.56;;;-8.61;85.61
67517;BME280;54359;59.124;37.910;2022-12-18T09:53:35;100409.09;;;-8.72;85.84
67517;BME280;54359;59.124;37.910;2022-12-18T09:56:04;100416.28;;;-8.66;85.70
67517;BME280;54359;59.124;37.910;2022-12-18T09:58:42;100395.81;;;-8.90;85.42
67517;BME280;54359;59.124;37.910;2022-12-18T10:01:23;100413.06;;;-8.74;85.48
67517;BME280;54359;59.124;37.910;2022-12-18T10:03:50;100406.94;;;-8.86;85.10
67517;BME280;54359;59.124;37.910;2022-12-18T10:06:54;100417.03;;;-8.85;85.36
67517;BME280;54359;59.124;37.910;2022-12-18T10:09:28;100420.56;;;-8.83;85.97
67517;BME280;54359;59.124;37.910;2022-12-18T10:12:06;100414.13;;;-8.89;85.90
67517;BME280;54359;59.124;37.910;2022-12-18T10:22:54;100419.41;;;-8.95;85.51
67517;BME280;54359;59.124;37.910;2022-12-18T10:25:28;100418.69;;;-8.94;85.44
67517;BME280;54359;59.124;37.910;2022-12-18T10:28:06;100411.66;;;-8.98;85.52
67517;BME280;54359;59.124;37.910;2022-12-18T10:30:33;100413.56;;;-8.96;85.91
67517;BME280;54359;59.124;37.910;2022-12-18T10:33:02;100396.56;;;-9.00;85.45
67517;BME280;54359;59.124;37.910;2022-12-18T10:35:28;100409.88;;;-8.99;85.36
67517;BME280;54359;59.124;37.910;2022-12-18T10:38:05;100407.56;;;-8.98;85.61
67517;BME280;54359;59.124;37.910;2022-12-18T10:40:32;100404.63;;;-8.94;86.00
67517;BME280;54359;59.124;37.910;2022-12-18T10:43:14;100410.78;;;-8.90;85.45
67517;BME280;54359;59.124;37.910;2022-12-18T10:45:41;100410.31;;;-8.86;85.92
67517;BME280;54359;59.124;37.910;2022-12-18T10:48:28;100401.53;;;-8.91;85.41
67517;BME280;54359;59.124;37.910;2022-12-18T10:50:55;100402.28;;;-8.92;85.52
67517;BME280;54359;59.124;37.910;2022-12-18T10:53:24;100400.81;;;-8.99;85.35
67517;BME280;54359;59.124;37.910;2022-12-18T10:55:55;100404.19;;;-9.07;85.39
67517;BME280;54359;59.124;37.910;2022-12-18T10:58:36;100400.25;;;-9.14;85.20
67517;BME280;54359;59.124;37.910;2022-12-18T11:01:13;100405.06;;;-9.15;85.56
67517;BME280;54359;59.124;37.910;2022-12-18T11:03:43;100395.25;;;-9.14;85.78
67517;BME280;54359;59.124;37.910;2022-12-18T11:06:13;100408.00;;;-9.11;85.72
67517;BME280;54359;59.124;37.910;2022-12-18T11:08:43;100407.41;;;-9.08;85.21
67517;BME280;54359;59.124;37.910;2022-12-18T11:11:22;100405.19;;;-9.05;85.65
67517;BME280;54359;59.124;37.910;2022-12-18T11:14:33;100402.44;;;-9.08;85.32
67517;BME280;54359;59.124;37.910;2022-12-18T11:17:00;100402.13;;;-9.11;85.31
67517;BME280;54359;59.124;37.910;2022-12-18T11:19:36;100407.72;;;-9.14;86.13
67517;BME280;54359;59.124;37.910;2022-12-18T11:22:19;100403.75;;;-9.12;85.52
67517;BME280;54359;59.124;37.910;2022-12-18T11:27:39;100410.78;;;-9.16;85.35
67517;BME280;54359;59.124;37.910;2022-12-18T11:33:04;100409.59;;;-9.11;85.97
67517;BME280;54359;59.124;37.910;2022-12-18T11:40:42;100392.50;;;-9.17;84.68
67517;BME280;54359;59.124;37.910;2022-12-18T11:43:31;100412.09;;;-9.11;85.01
67517;BME280;54359;59.124;37.910;2022-12-18T11:46:26;100409.47;;;-9.21;84.95
67517;BME280;54359;59.124;37.910;2022-12-18T11:52:20;100411.81;;;-9.32;85.49
67517;BME280;54359;59.124;37.910;2022-12-18T11:54:51;100422.34;;;-9.25;85.81
67517;BME280;54359;59.124;37.910;2022-12-18T12:00:30;100416.66;;;-9.24;85.72
67517;BME280;54359;59.124;37.910;2022-12-18T12:04:09;100423.09;;;-9.18;85.11
67517;BME280;54359;59.124;37.910;2022-12-18T12:06:40;100430.13;;;-9.22;85.11
67517;BME280;54359;59.124;37.910;2022-12-18T12:09:26;100439.50;;;-9.28;85.77
67517;BME280;54359;59.124;37.910;2022-12-18T12:12:39;100441.69;;;-9.32;85.68
67517;BME280;54359;59.124;37.910;2022-12-18T12:29:58;100441.25;;;-9.54;85.82
67517;BME280;54359;59.124;37.910;2022-12-18T12:32:45;100433.63;;;-9.55;84.86
67517;BME280;54359;59.124;37.910;2022-12-18T12:38:28;100429.66;;;-9.62;85.70
67517;BME280;54359;59.124;37.910;2022-12-18T12:41:08;100422.47;;;-9.67;85.40
67517;BME280;54359;59.124;37.910;2022-12-18T12:44:03;100441.69;;;-9.58;85.71
67517;BME280;54359;59.124;37.910;2022-12-18T12:46:35;100448.38;;;-9.57;85.69
67517;BME280;54359;59.124;37.910;2022-12-18T12:49:03;100430.09;;;-9.57;85.12
67517;BME280;54359;59.124;37.910;2022-12-18T12:51:36;100442.56;;;-9.48;85.49
67517;BME280;54359;59.124;37.910;2022-12-18T12:54:20;100436.69;;;-9.49;85.39
67517;BME280;54359;59.124;37.910;2022-12-18T12:57:11;100439.63;;;-9.44;85.62
67517;BME280;54359;59.124;37.910;2022-12-18T13:02:28;100435.81;;;-9.49;85.70
67517;BME280;54359;59.124;37.910;2022-12-18T13:05:09;100440.66;;;-9.51;84.86
67517;BME280;54359;59.124;37.910;2022-12-18T13:07:44;100470.50;;;-9.60;85.22
67517;BME280;54359;59.124;37.910;2022-12-18T13:13:13;100459.47;;;-9.79;84.16
67517;BME280;54359;59.124;37.910;2022-12-18T13:15:47;100469.41;;;-9.88;84.73
67517;BME280;54359;59.124;37.910;2022-12-18T13:18:22;100449.31;;;-9.98;84.78
67517;BME280;54359;59.124;37.910;2022-12-18T13:25:52;100468.47;;;-9.97;84.88
67517;BME280;54359;59.124;37.910;2022-12-18T13:34:29;100476.66;;;-10.07;85.14
67517;BME280;54359;59.124;37.910;2022-12-18T13:39:57;100481.09;;;-10.20;84.34
67517;BME280;54359;59.124;37.910;2022-12-18T13:45:37;100470.84;;;-10.32;85.05
67517;BME280;54359;59.124;37.910;2022-12-18T13:48:17;100463.06;;;-9.93;86.39
67517;BME280;54359;59.124;37.910;2022-12-18T13:50:49;100465.41;;;-9.35;86.88
67517;BME280;54359;59.124;37.910;2022-12-18T13:53:26;100467.75;;;-8.76;87.25
67517;BME280;54359;59.124;37.910;2022-12-18T13:55:56;100471.50;;;-8.08;87.28
67517;BME280;54359;59.124;37.910;2022-12-18T13:58:23;100452.56;;;-7.78;87.05
67517;BME280;54359;59.124;37.910;2022-12-18T14:00:50;100459.28;;;-7.31;87.07
67517;BME280;54359;59.124;37.910;2022-12-18T14:03:25;100480.09;;;-7.02;84.95
67517;BME280;54359;59.124;37.910;2022-12-18T14:06:00;100479.66;;;-6.69;85.93
67517;BME280;54359;59.124;37.910;2022-12-18T14:08:33;100475.22;;;-6.34;86.06
67517;BME280;54359;59.124;37.910;2022-12-18T14:11:01;100482.13;;;-6.21;85.08
67517;BME280;54359;59.124;37.910;2022-12-18T14:13:35;100496.41;;;-6.10;84.92
67517;BME280;54359;59.124;37.910;2022-12-18T14:16:04;100480.81;;;-5.97;84.74
67517;BME280;54359;59.124;37.910;2022-12-18T14:18:41;100483.94;;;-5.69;85.60
67517;BME280;54359;59.124;37.910;2022-12-18T14:21:37;100478.03;;;-5.79;84.18